^^

Nearby METAR Reports

 

EGHH - Bournemouth Airp, United Kingdom
Distance from station: S 10mi, 17km
Updated: 04/08/2020 10:50
Few Clouds
Few Clouds
 Wind from SW
Wind: SW 8 mph , 13 km/h
Temperature: 19°C
Dew Point: 8°C
Humidity: 49%
Barometer: 1017 hPa
Clouds: Few Clouds
Visibility: 6 miles , 10 km
Cloud details: Few Clouds 1219 m
2020/08/04 09:50 EGHH 040950Z 22007KT 170V240 9999 FEW040 19/08 Q1017
EGDM - Boscombe Down, United Kingdom
Distance from station: N 16mi, 26km
Updated: 04/08/2020 10:50
Mostly cloudy
Mostly cloudy
 Wind from WSW
Wind: WSW 9 mph , 15 km/h, Gust: 21 mph , 33 km/h
Temperature: 18°C
Dew Point: 8°C
Humidity: 52%
Barometer: 1017 hPa
Clouds: Mostly cloudy
Visibility: 6 miles , 10 km
Cloud details: Few Clouds 1219 m
Mostly cloudy 3048 m
2020/08/04 09:50 EGDM 040950Z 24008G18KT 9999 FEW040 BKN100 18/08 Q1017 NOSIG RMK BLU BLU
 
EGVP - Middle Wallop, United Kingdom
Distance from station: NE 17mi, 27km
Updated: 04/08/2020 10:50
Mostly cloudy
Mostly cloudy
 Wind from SSW
Wind: SSW 9 mph , 15 km/h
Temperature: 18°C
Dew Point: 7°C
Humidity: 49%
Barometer: 1017 hPa
Clouds: Mostly cloudy
Visibility: 6 miles , 10 km
Cloud details: Few Clouds 1067 m
Mostly cloudy 3048 m
2020/08/04 09:50 EGVP 040950Z 20008KT 9999 FEW035 BKN100 18/07 Q1017 RMK BLU
EGHI - Southampton Wx C, United Kingdom
Distance from station: E 19mi, 31km
Updated: 04/08/2020 10:50
Clear
Clear
 Wind from SSW
Wind: SSW 9 mph , 15 km/h
Temperature: 19°C
Dew Point: 7°C
Humidity: 46%
Barometer: 1017 hPa
Summary: Clear
Visibility: greater than 7 miles , 10 km
2020/08/04 09:50 EGHI 040950Z 21008KT 140V270 CAVOK 19/07 Q1017
 
EGDY - Yeovilton (navy), United Kingdom
Distance from station: W 36mi, 58km
Updated: 04/08/2020 10:50
Mostly cloudy
Mostly cloudy
 Wind from SSW
Wind: SSW 7 mph , 11 km/h
Temperature: 17°C
Dew Point: 10°C
Humidity: 64%
Barometer: 1017 hPa
Clouds: Mostly cloudy
Visibility: 6 miles , 10 km
Cloud details: Few Clouds 762 m
Mostly cloudy 2134 m
2020/08/04 09:50 EGDY 040950Z 21006KT 9999 FEW025 BKN070 17/10 Q1017 NOSIG RMK BLU BLU
EGUO - Colerne Raf, United Kingdom
Distance from station: NNW 41mi, 66km
Updated: 14/02/2019 22:50
NOT Current
Clear
Clear
 Wind from ENE
Wind: ENE 1 mph , 2 km/h
Temperature: 1°C
Dew Point: 0°C
Humidity: 93%
Barometer: 1029 hPa
Summary: Clear
Visibility: greater than 7 miles , 10 km
2019/02/14 22:50 EGUO 142250Z 06001KT CAVOK 01/00 Q1029 BLU NOSIG
 
EGVO - Odiham Raf, United Kingdom
Distance from station: ENE 42mi, 68km
Updated: 04/08/2020 10:50
Clear
Clear
 Wind from SW
Wind: SW 9 mph , 15 km/h
Temperature: 18°C
Dew Point: 7°C
Humidity: 49%
Barometer: 1017 hPa
Summary: Clear
Visibility: greater than 7 miles , 10 km
2020/08/04 09:50 EGVO 040950Z 22008KT CAVOK 18/07 Q1017 NOSIG RMK BLU BLU
EGGD - Bristol/Lulsgate, United Kingdom
Distance from station: NW 50mi, 81km
Updated: 04/08/2020 10:50
Mostly cloudy
Mostly cloudy
 Wind from SSW
Wind: SSW 7 mph , 11 km/h
Temperature: 14°C
Dew Point: 11°C
Humidity: 82%
Barometer: 1017 hPa
Clouds: Mostly cloudy
Visibility: 6 miles , 10 km
Cloud details: Mostly cloudy 1494 m
2020/08/04 09:50 EGGD 040950Z AUTO 21006KT 180V240 9999 BKN049 14/11 Q1017